Amador City, California
Current Conditions -  °F | °C
As of 2:55 PM on Tuesday 21 Oct 2014 (Local Time) from KPVF Reporting Station
Clear Clear  
Wind Chill: 61°   Ceiling: Unl
Heat Index: 61°   Visibility: 10mi
Dew Point: 36°   Wind: 5mph
Humidity: 39%   Direction: 310°NW
Pressure: 30.06"   Gusts: NA
Location:  38.42°N, 120.82°W
Report Text: KPVF 212155Z AUTO 31004KT 10SM CLR 16/02 A3006 RMK AO1
Loading
Personal Weather Stations






























Interactive Weather Map
Tropical Storm Tracking
New forecast layout! Learn more

10-Day Weather Forecast

Advertisements
Track Severe Weather on mobile